createdAt,value
2022-08-11T00:00:55.508Z,15.00
2022-08-11T00:03:42.355Z,15.00
2022-08-11T00:06:02.010Z,14.99
2022-08-11T00:08:35.176Z,15.03
2022-08-11T00:11:09.249Z,14.97
2022-08-11T00:13:46.149Z,15.07
2022-08-11T00:16:19.650Z,14.97
2022-08-11T00:18:53.389Z,15.14
2022-08-11T00:22:02.973Z,15.15
2022-08-11T00:24:04.530Z,15.07
2022-08-11T00:26:36.724Z,15.03
2022-08-11T00:29:12.542Z,14.96
2022-08-11T00:31:49.237Z,14.96
2022-08-11T00:34:25.902Z,14.98
2022-08-11T00:37:22.135Z,14.98
2022-08-11T00:39:53.841Z,15.10
2022-08-11T00:42:44.376Z,15.07
2022-08-11T00:45:37.839Z,15.21
2022-08-11T00:48:28.440Z,15.13
2022-08-11T00:51:18.927Z,15.02
2022-08-11T00:54:21.606Z,15.00
2022-08-11T00:57:01.338Z,15.02
2022-08-11T00:59:51.338Z,14.89
2022-08-11T01:02:42.026Z,14.94
2022-08-11T01:05:44.786Z,14.86
2022-08-11T01:08:21.570Z,14.71
2022-08-11T01:11:28.637Z,14.75
2022-08-11T01:14:34.227Z,14.78
2022-08-11T01:17:09.552Z,14.64
2022-08-11T01:20:47.639Z,14.60
2022-08-11T01:22:53.975Z,14.46
2022-08-11T01:25:57.613Z,14.55
2022-08-11T01:28:54.584Z,14.39
2022-08-11T01:31:51.205Z,14.43
2022-08-11T01:34:58.165Z,14.42
2022-08-11T01:37:48.651Z,14.42
2022-08-11T01:40:28.107Z,14.34
2022-08-11T01:43:41.515Z,14.23
2022-08-11T01:46:17.158Z,14.28
2022-08-11T01:50:06.781Z,14.33
2022-08-11T01:52:05.071Z,14.24
2022-08-11T01:54:38.809Z,14.19
2022-08-11T01:57:31.457Z,14.08
2022-08-11T02:00:17.298Z,14.17
2022-08-11T02:02:48.917Z,13.96
2022-08-11T02:05:50.857Z,13.95
2022-08-11T02:08:33.166Z,14.21
2022-08-11T02:11:26.417Z,14.17
2022-08-11T02:14:14.060Z,13.66
2022-08-11T02:17:21.506Z,13.65
2022-08-11T02:20:35.837Z,13.69
2022-08-11T02:24:05.579Z,13.92
2022-08-11T02:26:03.110Z,14.13
2022-08-11T02:28:54.019Z,14.19
2022-08-11T02:32:17.162Z,14.13
2022-08-11T02:35:08.528Z,13.96
2022-08-11T02:37:43.801Z,14.11
2022-08-11T02:40:41.337Z,13.98
2022-08-11T02:43:15.568Z,13.96
2022-08-11T02:45:55.214Z,13.94
2022-08-11T02:48:52.863Z,13.92
2022-08-11T02:51:38.453Z,13.85
2022-08-11T02:54:15.013Z,13.89
2022-08-11T02:56:56.331Z,13.91
2022-08-11T02:59:51.347Z,13.89
2022-08-11T03:02:54.072Z,13.70
2022-08-11T03:05:44.678Z,13.86
2022-08-11T03:08:55.153Z,14.02
2022-08-11T03:11:52.776Z,13.88
2022-08-11T03:14:50.459Z,13.78
2022-08-11T03:17:30.391Z,13.82
2022-08-11T03:20:37.820Z,13.76
2022-08-11T03:23:19.822Z,13.57
2022-08-11T03:26:00.405Z,13.69
2022-08-11T03:28:50.890Z,13.79
2022-08-11T03:31:39.955Z,13.72
2022-08-11T03:34:19.621Z,13.64
2022-08-11T03:37:45.178Z,13.65
2022-08-11T03:40:23.379Z,13.58
2022-08-11T03:43:03.890Z,13.67
2022-08-11T03:45:55.975Z,13.72
2022-08-11T03:48:58.436Z,13.62
2022-08-11T03:51:44.786Z,13.63
2022-08-11T03:54:35.437Z,13.55
2022-08-11T03:57:28.687Z,13.63
2022-08-11T04:00:19.576Z,13.71
2022-08-11T04:03:09.843Z,13.65
2022-08-11T04:06:07.933Z,13.70
2022-08-11T04:08:50.957Z,13.83
2022-08-11T04:11:42.566Z,13.88
2022-08-11T04:15:07.626Z,13.91
2022-08-11T04:18:11.106Z,13.94
2022-08-11T04:21:04.558Z,14.08
2022-08-11T04:24:36.492Z,14.16
2022-08-11T04:26:16.224Z,14.20
2022-08-11T04:29:14.248Z,14.34
2022-08-11T04:32:07.777Z,14.41
2022-08-11T04:34:57.989Z,14.45
2022-08-11T04:37:51.242Z,14.47
2022-08-11T04:40:35.407Z,14.61
2022-08-11T04:43:33.253Z,14.62
2022-08-11T04:46:23.841Z,14.43
2022-08-11T04:49:35.511Z,14.54
2022-08-11T04:52:44.206Z,14.70
2022-08-11T04:55:51.481Z,14.95
2022-08-11T04:58:50.444Z,15.03
2022-08-11T05:01:43.976Z,15.35
2022-08-11T05:04:52.497Z,15.49
2022-08-11T05:07:32.152Z,15.64
2022-08-11T05:10:12.204Z,15.77
2022-08-11T05:12:52.263Z,15.73
2022-08-11T05:15:47.153Z,15.67
2022-08-11T05:18:37.531Z,15.87
2022-08-11T05:21:44.747Z,15.98
2022-08-11T05:24:34.971Z,16.22
2022-08-11T05:27:27.009Z,15.83
2022-08-11T05:30:34.320Z,16.25
2022-08-11T05:33:23.850Z,16.19
2022-08-11T05:36:12.999Z,16.13
2022-08-11T05:39:05.860Z,16.26
2022-08-11T05:41:55.412Z,16.16
2022-08-11T05:44:46.409Z,16.49
2022-08-11T05:47:44.687Z,16.35
2022-08-11T05:50:37.241Z,16.38
2022-08-11T05:53:37.327Z,16.72
2022-08-11T05:56:25.079Z,16.93
2022-08-11T05:58:58.259Z,17.03
2022-08-11T06:01:32.141Z,17.10
2022-08-11T06:04:17.899Z,17.22
2022-08-11T06:06:55.376Z,17.40
2022-08-11T06:09:29.632Z,17.39
2022-08-11T06:12:10.410Z,17.57
2022-08-11T06:14:46.649Z,17.90
2022-08-11T06:17:26.701Z,18.02
2022-08-11T06:20:08.560Z,18.18
2022-08-11T06:22:41.255Z,18.50
2022-08-11T06:25:13.714Z,18.73
2022-08-11T06:27:46.994Z,18.93
2022-08-11T06:30:41.168Z,19.05
2022-08-11T06:33:15.289Z,19.09
2022-08-11T06:36:11.722Z,19.30
2022-08-11T06:39:02.849Z,19.52
2022-08-11T06:41:54.279Z,19.78
2022-08-11T06:44:37.807Z,19.89
2022-08-11T06:47:14.673Z,20.24
2022-08-11T06:53:06.763Z,20.35
2022-08-11T06:56:00.566Z,20.63
2022-08-11T06:58:52.211Z,20.90
2022-08-11T07:01:52.065Z,20.92
2022-08-11T07:04:32.297Z,21.09
2022-08-11T07:07:41.040Z,21.12
2022-08-11T07:10:42.154Z,21.33
2022-08-11T07:13:44.512Z,21.48
2022-08-11T07:16:12.655Z,21.60
2022-08-11T07:19:01.761Z,21.78
2022-08-11T07:22:03.012Z,21.97
2022-08-11T07:24:59.100Z,21.81
2022-08-11T07:27:41.975Z,22.12
2022-08-11T07:30:14.216Z,22.29
2022-08-11T07:32:54.129Z,22.58
2022-08-11T07:35:40.297Z,22.66
2022-08-11T07:38:22.849Z,22.76
2022-08-11T07:40:53.454Z,22.87
2022-08-11T07:43:24.686Z,22.70
2022-08-11T07:46:15.604Z,23.03
2022-08-11T07:49:04.847Z,22.90
2022-08-11T07:51:55.891Z,23.27
2022-08-11T07:54:28.191Z,22.85
2022-08-11T07:57:09.036Z,23.04
2022-08-11T08:00:03.958Z,23.17
2022-08-11T08:02:43.577Z,23.46
2022-08-11T08:05:34.154Z,23.33
2022-08-11T08:08:24.678Z,23.43
2022-08-11T08:11:16.194Z,23.87
2022-08-11T08:14:07.790Z,23.74
2022-08-11T08:16:58.708Z,23.68
2022-08-11T08:19:30.703Z,23.96
2022-08-11T08:22:37.295Z,24.18
2022-08-11T08:24:36.795Z,24.03
2022-08-11T08:27:08.517Z,24.17
2022-08-11T08:29:58.757Z,24.21
2022-08-11T08:32:30.679Z,24.03
2022-08-11T08:35:02.431Z,24.50
2022-08-11T08:37:47.222Z,24.53
2022-08-11T08:40:09.935Z,24.57
2022-08-11T08:42:45.523Z,24.57
2022-08-11T08:45:18.882Z,24.18
2022-08-11T08:48:07.988Z,24.52
2022-08-11T08:51:00.167Z,25.11
2022-08-11T08:53:34.631Z,25.04
2022-08-11T08:56:07.296Z,25.56
2022-08-11T08:58:40.398Z,25.22
2022-08-11T09:01:13.342Z,25.58
2022-08-11T09:04:06.752Z,25.38
2022-08-11T09:06:18.291Z,25.27
2022-08-11T09:08:51.946Z,25.57
2022-08-11T09:11:43.419Z,25.86
2022-08-11T09:14:15.401Z,25.90
2022-08-11T09:16:48.601Z,25.38
2022-08-11T09:19:21.546Z,25.69
2022-08-11T09:22:12.190Z,25.37
2022-08-11T09:25:01.978Z,24.81
2022-08-11T09:27:34.631Z,24.62
2022-08-11T09:30:07.930Z,25.24
2022-08-11T09:32:42.351Z,25.27
2022-08-11T09:35:15.198Z,24.58
2022-08-11T09:38:04.594Z,24.17
2022-08-11T09:40:36.373Z,24.57
2022-08-11T09:43:27.630Z,24.15
2022-08-11T09:46:00.536Z,24.13
2022-08-11T09:48:40.093Z,24.22
2022-08-11T09:51:12.691Z,24.09
2022-08-11T09:53:47.122Z,23.77
2022-08-11T09:56:40.682Z,24.02
2022-08-11T09:59:12.552Z,24.59
2022-08-11T10:01:49.583Z,25.06
2022-08-11T10:04:26.566Z,25.13
2022-08-11T10:07:05.738Z,25.44
2022-08-11T10:09:52.346Z,25.58
2022-08-11T10:12:30.216Z,26.00
2022-08-11T10:15:24.573Z,25.50
2022-08-11T10:18:19.576Z,25.81
2022-08-11T10:20:55.438Z,25.69
2022-08-11T10:24:01.472Z,25.94
2022-08-11T10:26:40.111Z,26.75
2022-08-11T10:29:36.723Z,27.29
2022-08-11T10:32:27.808Z,26.64
2022-08-11T10:35:00.102Z,27.10
2022-08-11T10:38:15.614Z,25.65
2022-08-11T10:40:08.565Z,25.66
2022-08-11T10:42:59.257Z,25.86
2022-08-11T10:45:51.908Z,25.85
2022-08-11T10:48:25.330Z,25.98
2022-08-11T10:51:15.481Z,26.14
2022-08-11T10:54:11.518Z,25.94
2022-08-11T10:57:01.826Z,26.77
2022-08-11T10:59:35.635Z,26.59
2022-08-11T11:02:07.332Z,26.48
2022-08-11T11:04:51.590Z,26.33
2022-08-11T11:07:30.026Z,26.28
2022-08-11T11:10:07.569Z,25.80
2022-08-11T11:13:08.391Z,25.59
2022-08-11T11:15:59.803Z,25.41
2022-08-11T11:18:35.300Z,26.10
2022-08-11T11:21:09.281Z,26.46
2022-08-11T11:24:06.616Z,27.13
2022-08-11T11:26:54.350Z,27.32
2022-08-11T11:29:57.314Z,27.79
2022-08-11T11:32:53.636Z,28.13
2022-08-11T11:35:39.653Z,27.86
2022-08-11T11:38:14.131Z,28.24
2022-08-11T11:40:44.393Z,27.83
2022-08-11T11:43:15.466Z,28.02
2022-08-11T11:45:48.062Z,27.36
2022-08-11T11:48:20.519Z,27.25
2022-08-11T11:50:53.741Z,27.06
2022-08-11T11:53:25.205Z,26.20
2022-08-11T11:55:57.406Z,26.31
2022-08-11T11:58:48.513Z,26.59
2022-08-11T12:01:23.176Z,26.71
2022-08-11T12:03:55.729Z,27.31
2022-08-11T12:06:41.943Z,27.23
2022-08-11T12:09:16.855Z,27.38
2022-08-11T12:12:05.649Z,27.98
2022-08-11T12:14:38.626Z,27.83
2022-08-11T12:17:09.688Z,27.20
2022-08-11T12:19:40.676Z,27.19
2022-08-11T12:22:33.408Z,27.11
2022-08-11T12:25:24.841Z,27.64
2022-08-11T12:27:57.574Z,27.66
2022-08-11T12:30:28.642Z,28.47
2022-08-11T12:32:59.932Z,28.49
2022-08-11T12:35:31.289Z,28.33
2022-08-11T12:38:10.832Z,28.08
2022-08-11T12:41:14.945Z,27.20
2022-08-11T12:43:56.412Z,27.38
2022-08-11T12:46:25.492Z,26.72
2022-08-11T12:49:17.285Z,26.55
2022-08-11T12:52:14.914Z,26.44
2022-08-11T12:54:54.786Z,26.80
2022-08-11T12:57:55.472Z,27.45
2022-08-11T13:00:46.238Z,28.21
2022-08-11T13:03:37.071Z,28.43
2022-08-11T13:06:09.676Z,28.26
2022-08-11T13:08:42.710Z,28.23
2022-08-11T13:11:55.739Z,27.77
2022-08-11T13:14:15.281Z,27.22
2022-08-11T13:17:04.463Z,26.97
2022-08-11T13:19:36.659Z,26.79
2022-08-11T13:22:08.723Z,26.74
2022-08-11T13:24:41.190Z,27.16
2022-08-11T13:27:14.281Z,27.35
2022-08-11T13:29:47.533Z,27.55
2022-08-11T13:32:20.511Z,27.96
2022-08-11T13:34:52.000Z,27.88
2022-08-11T13:38:18.843Z,28.05
2022-08-11T13:39:59.032Z,27.86
2022-08-11T13:42:30.501Z,27.57
2022-08-11T13:45:02.129Z,27.32
2022-08-11T13:47:33.793Z,26.81
2022-08-11T13:50:08.651Z,26.80
2022-08-11T13:52:42.748Z,26.64
2022-08-11T13:55:50.949Z,26.96
2022-08-11T13:58:08.060Z,26.88
2022-08-11T14:00:27.771Z,27.23
2022-08-11T14:02:58.243Z,27.61
2022-08-11T14:05:35.009Z,27.52
2022-08-11T14:08:08.970Z,27.11
2022-08-11T14:10:42.226Z,27.37
2022-08-11T14:13:42.256Z,27.09
2022-08-11T14:16:09.582Z,27.49
2022-08-11T14:18:43.700Z,27.37
2022-08-11T14:21:37.433Z,27.50
2022-08-11T14:24:10.819Z,27.57
2022-08-11T14:26:44.617Z,26.87
2022-08-11T14:29:22.010Z,26.70
2022-08-11T14:31:58.275Z,26.64
2022-08-11T14:34:31.171Z,26.76
2022-08-11T14:37:15.336Z,26.94
2022-08-11T14:39:52.509Z,26.94
2022-08-11T14:42:44.025Z,26.71
2022-08-11T14:45:54.222Z,26.97
2022-08-11T14:48:11.311Z,26.99
2022-08-11T14:50:42.914Z,27.01
2022-08-11T14:53:16.106Z,27.27
2022-08-11T14:56:07.271Z,27.01
2022-08-11T14:58:40.376Z,27.09
2022-08-11T15:01:30.785Z,26.81
2022-08-11T15:04:34.507Z,26.83
2022-08-11T15:06:35.707Z,26.89
2022-08-11T15:09:09.255Z,26.51
2022-08-11T15:12:00.294Z,26.65
2022-08-11T15:14:55.800Z,26.78
2022-08-11T15:17:24.223Z,26.23
2022-08-11T15:20:18.364Z,26.67
2022-08-11T15:23:07.916Z,26.77
2022-08-11T15:25:41.606Z,27.01
2022-08-11T15:28:32.864Z,26.74
2022-08-11T15:31:23.418Z,26.79
2022-08-11T15:34:16.473Z,26.60
2022-08-11T15:37:08.796Z,26.63
2022-08-11T15:39:44.307Z,26.91
2022-08-11T15:42:36.097Z,26.84
2022-08-11T15:45:28.239Z,26.64
2022-08-11T15:48:05.356Z,26.43
2022-08-11T15:50:39.966Z,26.62
2022-08-11T15:53:22.622Z,26.70
2022-08-11T15:55:55.127Z,26.43
2022-08-11T15:58:47.177Z,26.48
2022-08-11T16:01:41.434Z,26.55
2022-08-11T16:04:16.123Z,26.19
2022-08-11T16:06:52.652Z,26.17
2022-08-11T16:09:48.143Z,26.13
2022-08-11T16:12:09.846Z,26.35
2022-08-11T16:15:04.696Z,26.23
2022-08-11T16:17:53.690Z,26.23
2022-08-11T16:20:27.765Z,26.19
2022-08-11T16:23:02.767Z,25.98
2022-08-11T16:27:02.078Z,26.05
2022-08-11T16:28:10.348Z,26.23
2022-08-11T16:30:46.821Z,26.18
2022-08-11T16:33:48.527Z,25.84
2022-08-11T16:36:11.795Z,26.07
2022-08-11T16:38:44.409Z,26.14
2022-08-11T16:41:19.648Z,26.07
2022-08-11T16:44:09.812Z,25.93
2022-08-11T16:46:59.156Z,26.00
2022-08-11T16:49:53.219Z,25.66
2022-08-11T16:52:25.521Z,25.81
2022-08-11T16:54:56.725Z,25.86
2022-08-11T16:57:46.890Z,25.72
2022-08-11T17:00:19.740Z,25.63
2022-08-11T17:03:15.574Z,25.77
2022-08-11T17:06:06.791Z,25.68
2022-08-11T17:09:01.762Z,25.59
2022-08-11T17:11:53.487Z,25.86
2022-08-11T17:14:36.507Z,25.76
2022-08-11T17:17:10.545Z,25.62
2022-08-11T17:20:42.821Z,25.60
2022-08-11T17:22:49.573Z,25.47
2022-08-11T17:25:23.590Z,24.99
2022-08-11T17:27:55.984Z,25.18
2022-08-11T17:30:32.349Z,25.03
2022-08-11T17:33:21.758Z,25.05
2022-08-11T17:35:53.068Z,25.06
2022-08-11T17:38:25.828Z,25.15
2022-08-11T17:41:23.367Z,24.99
2022-08-11T17:44:09.579Z,24.95
2022-08-11T17:47:05.186Z,25.22
2022-08-11T17:49:35.494Z,25.41
2022-08-11T17:52:22.330Z,25.26
2022-08-11T17:55:14.833Z,25.23
2022-08-11T17:58:06.033Z,25.18
2022-08-11T18:00:37.871Z,25.33
2022-08-11T18:03:28.030Z,25.36
2022-08-11T18:06:01.736Z,24.73
2022-08-11T18:08:52.816Z,24.60
2022-08-11T18:12:06.939Z,24.64
2022-08-11T18:14:38.016Z,24.08
2022-08-11T18:17:28.478Z,24.08
2022-08-11T18:20:17.870Z,24.20
2022-08-11T18:23:09.270Z,24.17
2022-08-11T18:26:07.254Z,23.54
2022-08-11T18:29:01.078Z,23.71
2022-08-11T18:31:54.416Z,23.52
2022-08-11T18:34:48.302Z,23.41
2022-08-11T18:37:46.052Z,23.37
2022-08-11T18:40:38.797Z,23.49
2022-08-11T18:43:31.448Z,23.04
2022-08-11T18:46:23.486Z,23.16
2022-08-11T18:50:02.253Z,22.42
2022-08-11T18:52:25.441Z,22.23
2022-08-11T18:55:17.131Z,22.62
2022-08-11T18:58:08.799Z,22.77
2022-08-11T19:01:00.455Z,22.72
2022-08-11T19:03:51.484Z,22.55
2022-08-11T19:06:43.730Z,22.68
2022-08-11T19:09:35.414Z,22.70
2022-08-11T19:12:27.368Z,22.35
2022-08-11T19:15:20.310Z,22.19
2022-08-11T19:18:11.826Z,21.83
2022-08-11T19:21:04.138Z,21.54
2022-08-11T19:23:58.740Z,21.35
2022-08-11T19:26:50.355Z,21.07
2022-08-11T19:30:05.029Z,21.11
2022-08-11T19:32:34.249Z,21.02
2022-08-11T19:35:24.783Z,20.92
2022-08-11T19:38:15.786Z,20.68
2022-08-11T19:41:06.276Z,20.74
2022-08-11T19:43:57.886Z,20.54
2022-08-11T19:46:47.605Z,20.25
2022-08-11T19:49:37.844Z,20.20
2022-08-11T19:52:28.229Z,20.07
2022-08-11T19:55:18.320Z,19.95
2022-08-11T19:58:09.130Z,19.99
2022-08-11T20:00:59.217Z,19.88
2022-08-11T20:03:48.572Z,19.75
2022-08-11T20:06:41.436Z,19.98
2022-08-11T20:10:04.589Z,19.68
2022-08-11T20:12:25.165Z,19.39
2022-08-11T20:15:16.567Z,19.38
2022-08-11T20:18:08.085Z,19.30
2022-08-11T20:20:59.932Z,18.81
2022-08-11T20:23:49.548Z,19.00
2022-08-11T20:26:40.381Z,19.23
2022-08-11T20:29:30.889Z,19.01
2022-08-11T20:32:21.475Z,19.20
2022-08-11T20:35:12.571Z,19.35
2022-08-11T20:38:04.359Z,19.41
2022-08-11T20:40:56.115Z,19.30
2022-08-11T20:44:07.632Z,19.09
2022-08-11T20:46:41.675Z,19.12
2022-08-11T20:49:45.140Z,18.97
2022-08-11T20:52:28.160Z,19.18
2022-08-11T20:55:19.302Z,18.99
2022-08-11T20:58:17.690Z,19.00
2022-08-11T21:01:02.630Z,19.05
2022-08-11T21:06:44.521Z,18.75
2022-08-11T21:09:58.611Z,18.71
2022-08-11T21:12:29.709Z,18.51
2022-08-11T21:15:39.199Z,18.53
2022-08-11T21:18:28.457Z,18.51
2022-08-11T21:21:08.331Z,18.39
2022-08-11T21:24:00.946Z,18.33
2022-08-11T21:26:53.180Z,18.45
2022-08-11T21:29:45.108Z,18.28
2022-08-11T21:32:36.606Z,18.15
2022-08-11T21:35:27.424Z,18.24
2022-08-11T21:38:18.420Z,18.27
2022-08-11T21:41:10.575Z,18.26
2022-08-11T21:44:03.552Z,18.00
2022-08-11T21:46:56.136Z,18.16
2022-08-11T21:49:45.905Z,17.98
2022-08-11T21:52:35.671Z,17.90
2022-08-11T21:55:25.961Z,17.77
2022-08-11T21:58:17.374Z,17.65
2022-08-11T22:01:06.399Z,17.51
2022-08-11T22:03:57.442Z,17.68
2022-08-11T22:06:47.418Z,17.71
2022-08-11T22:09:36.268Z,17.59
2022-08-11T22:12:41.084Z,17.37
2022-08-11T22:15:17.861Z,17.47
2022-08-11T22:18:07.140Z,17.37
2022-08-11T22:20:58.054Z,17.31
2022-08-11T22:23:48.315Z,17.11
2022-08-11T22:26:41.359Z,17.14
2022-08-11T22:29:50.203Z,16.98
2022-08-11T22:32:26.129Z,16.98
2022-08-11T22:35:16.215Z,17.05
2022-08-11T22:38:07.407Z,17.06
2022-08-11T22:40:56.879Z,17.00
2022-08-11T22:43:46.556Z,17.05
2022-08-11T22:46:38.259Z,16.91
2022-08-11T22:49:28.359Z,16.86
2022-08-11T22:52:20.079Z,16.76
2022-08-11T22:55:10.564Z,16.67
2022-08-11T22:58:00.700Z,16.75
2022-08-11T23:00:50.825Z,16.82
2022-08-11T23:03:40.398Z,16.80
2022-08-11T23:06:29.765Z,16.67
2022-08-11T23:09:20.869Z,16.42
2022-08-11T23:12:11.698Z,16.56
2022-08-11T23:15:01.761Z,16.11
2022-08-11T23:17:52.861Z,16.38
2022-08-11T23:20:52.321Z,16.64
2022-08-11T23:23:34.859Z,16.54
2022-08-11T23:26:25.682Z,16.40
2022-08-11T23:29:15.454Z,16.37
2022-08-11T23:32:06.767Z,16.19
2022-08-11T23:35:04.615Z,16.47
2022-08-11T23:37:49.464Z,16.36
2022-08-11T23:40:38.613Z,16.25
2022-08-11T23:43:27.880Z,16.28
2022-08-11T23:46:17.480Z,16.13
2022-08-11T23:49:10.833Z,16.09
2022-08-11T23:52:01.715Z,15.88
2022-08-11T23:54:51.886Z,15.97
2022-08-11T23:57:47.634Z,16.01
